Bainbridge, Georgia
Current Conditions -  °F | °C
As of 5:55 PM on Tuesday 25 Nov 2014 (Local Time) from KBGE Reporting Station
Light Rain Light Rain  
Wind Chill: 54°   Ceiling: 2200
Heat Index: 54°   Visibility: 10mi
Dew Point: 52°   Wind: 7mph
Humidity: 94%   Direction: 20°NNE
Pressure: 30.03"   Gusts: NA
Location:  30.91°N, 84.57°W
Report Text: KBGE 252255Z AUTO 02006KT 10SM -RA SCT017 BKN022 12/11 A3003 RMK AO2
Loading
Personal Weather Stations






























Interactive Weather Map New forecast layout! Learn more

10-Day Weather Forecast

Advertisements
Track Severe Weather on mobile